createdAt,value
2023-04-08T00:01:41.836Z,72.96
2023-04-08T00:04:09.877Z,72.94
2023-04-08T00:06:37.291Z,73.97
2023-04-08T00:09:05.589Z,76.16
2023-04-08T00:11:32.274Z,76.65
2023-04-08T00:13:59.890Z,77.01
2023-04-08T00:16:26.649Z,75.85
2023-04-08T00:18:53.308Z,76.09
2023-04-08T00:21:21.255Z,74.50
2023-04-08T00:23:47.988Z,74.87
2023-04-08T00:26:14.707Z,75.53
2023-04-08T00:28:42.713Z,75.57
2023-04-08T00:31:09.759Z,74.87
2023-04-08T00:33:36.723Z,74.31
2023-04-08T00:36:03.501Z,75.13
2023-04-08T00:38:31.005Z,74.19
2023-04-08T00:40:58.407Z,74.82
2023-04-08T00:43:25.304Z,75.15
2023-04-08T00:45:52.097Z,74.77
2023-04-08T00:48:18.861Z,74.56
2023-04-08T00:50:47.107Z,75.13
2023-04-08T00:53:18.454Z,75.58
2023-04-08T00:55:45.422Z,75.42
2023-04-08T00:58:12.675Z,75.28
2023-04-08T01:00:43.132Z,74.80
2023-04-08T01:03:20.892Z,74.38
2023-04-08T01:06:00.047Z,74.41
2023-04-08T01:08:27.805Z,74.94
2023-04-08T01:10:54.438Z,75.31
2023-04-08T01:13:21.097Z,73.91
2023-04-08T01:15:47.850Z,73.72
2023-04-08T01:18:14.564Z,72.67
2023-04-08T01:20:42.186Z,72.95
2023-04-08T01:23:08.684Z,73.46
2023-04-08T01:25:37.199Z,75.67
2023-04-08T01:28:17.060Z,74.93
2023-04-08T01:30:43.696Z,75.11
2023-04-08T01:33:14.503Z,75.70
2023-04-08T01:35:41.163Z,75.01
2023-04-08T01:38:09.184Z,75.68
2023-04-08T01:40:35.919Z,75.29
2023-04-08T01:43:03.263Z,74.87
2023-04-08T01:45:30.374Z,75.19
2023-04-08T01:47:57.216Z,75.32
2023-04-08T01:50:24.053Z,75.97
2023-04-08T01:52:53.034Z,76.17
2023-04-08T01:55:19.944Z,75.98
2023-04-08T01:57:51.512Z,76.62
2023-04-08T02:00:24.093Z,76.61
2023-04-08T02:02:50.849Z,76.59
2023-04-08T02:05:17.831Z,75.87
2023-04-08T02:07:46.763Z,74.40
2023-04-08T02:10:13.415Z,75.63
2023-04-08T02:12:40.013Z,76.35
2023-04-08T02:15:07.081Z,75.54
2023-04-08T02:17:42.783Z,74.59
2023-04-08T02:20:40.027Z,75.78
2023-04-08T02:23:14.733Z,75.32
2023-04-08T02:25:43.328Z,76.02
2023-04-08T02:28:11.270Z,75.64
2023-04-08T02:30:44.297Z,75.50
2023-04-08T02:33:11.877Z,74.71
2023-04-08T02:35:38.601Z,76.54
2023-04-08T02:38:05.409Z,76.32
2023-04-08T02:40:33.164Z,76.14
2023-04-08T02:43:00.113Z,76.06
2023-04-08T02:45:28.470Z,75.15
2023-04-08T02:47:55.481Z,76.17
2023-04-08T02:50:22.284Z,77.27
2023-04-08T02:52:48.859Z,77.92
2023-04-08T02:55:15.759Z,77.94
2023-04-08T02:57:42.627Z,78.58
2023-04-08T03:00:09.956Z,78.69
2023-04-08T03:02:36.717Z,78.12
2023-04-08T03:05:05.445Z,78.31
2023-04-08T03:07:32.628Z,78.30
2023-04-08T03:09:59.328Z,78.81
2023-04-08T03:12:27.677Z,78.51
2023-04-08T03:14:54.533Z,78.59
2023-04-08T03:17:21.415Z,78.62
2023-04-08T03:19:48.076Z,79.16
2023-04-08T03:22:14.694Z,77.95
2023-04-08T03:24:41.241Z,77.25
2023-04-08T03:27:08.531Z,77.03
2023-04-08T03:29:35.372Z,78.08
2023-04-08T03:32:02.624Z,77.52
2023-04-08T03:34:29.295Z,77.00
2023-04-08T03:36:56.160Z,76.43
2023-04-08T03:39:22.788Z,77.35
2023-04-08T03:41:49.467Z,75.59
2023-04-08T03:44:16.212Z,75.86
2023-04-08T03:46:42.836Z,75.27
2023-04-08T03:49:09.526Z,76.70
2023-04-08T03:51:36.176Z,76.86
2023-04-08T03:54:02.964Z,75.69
2023-04-08T03:56:29.743Z,75.50
2023-04-08T03:58:56.417Z,75.32
2023-04-08T04:01:23.084Z,75.37
2023-04-08T04:03:49.850Z,76.04
2023-04-08T04:06:16.597Z,76.08
2023-04-08T04:08:43.219Z,76.62
2023-04-08T04:11:09.904Z,75.75
2023-04-08T04:13:36.596Z,75.37
2023-04-08T04:16:03.408Z,75.30
2023-04-08T04:18:30.214Z,75.53
2023-04-08T04:20:56.841Z,76.37
2023-04-08T04:23:25.748Z,77.91
2023-04-08T04:25:52.536Z,77.04
2023-04-08T04:28:19.207Z,76.49
2023-04-08T04:30:46.268Z,77.53
2023-04-08T04:33:12.998Z,76.94
2023-04-08T04:35:39.974Z,77.78
2023-04-08T04:38:11.065Z,77.23
2023-04-08T04:40:37.816Z,76.99
2023-04-08T04:43:04.506Z,76.00
2023-04-08T04:45:31.201Z,76.50
2023-04-08T04:47:57.850Z,77.09
2023-04-08T04:50:24.573Z,76.27
2023-04-08T04:52:51.175Z,76.56
2023-04-08T04:55:17.917Z,76.54
2023-04-08T04:57:44.611Z,75.62
2023-04-08T05:00:11.703Z,75.80
2023-04-08T05:02:38.412Z,76.53
2023-04-08T05:05:05.583Z,77.73
2023-04-08T05:07:32.340Z,78.34
2023-04-08T05:09:59.018Z,77.63
2023-04-08T05:12:25.783Z,77.47
2023-04-08T05:14:52.392Z,76.92
2023-04-08T05:17:19.085Z,76.84
2023-04-08T05:19:45.800Z,76.38
2023-04-08T05:22:12.354Z,77.58
2023-04-08T05:24:38.959Z,77.61
2023-04-08T05:27:05.773Z,78.00
2023-04-08T05:29:32.398Z,77.32
2023-04-08T05:31:59.304Z,77.15
2023-04-08T05:34:25.999Z,76.87
2023-04-08T05:36:52.597Z,76.31
2023-04-08T05:39:19.562Z,76.54
2023-04-08T05:41:46.600Z,74.16
2023-04-08T05:44:14.095Z,75.01
2023-04-08T05:46:40.737Z,72.28
2023-04-08T05:49:07.464Z,71.32
2023-04-08T05:51:34.106Z,71.05
2023-04-08T05:54:00.960Z,71.59
2023-04-08T05:56:27.702Z,71.38
2023-04-08T05:58:54.321Z,70.52
2023-04-08T06:01:21.460Z,70.56
2023-04-08T06:03:48.256Z,71.39
2023-04-08T06:06:15.112Z,70.45
2023-04-08T06:08:41.690Z,70.20
2023-04-08T06:11:08.398Z,70.71
2023-04-08T06:13:35.229Z,69.26
2023-04-08T06:16:15.075Z,70.12
2023-04-08T06:18:41.714Z,68.68
2023-04-08T06:21:08.444Z,68.48
2023-04-08T06:23:35.137Z,68.55
2023-04-08T06:26:01.782Z,67.51
2023-04-08T06:28:29.781Z,68.20
2023-04-08T06:30:56.924Z,67.08
2023-04-08T06:33:23.586Z,66.14
2023-04-08T06:35:50.623Z,65.12
2023-04-08T06:38:17.298Z,65.08
2023-04-08T06:40:43.975Z,65.54
2023-04-08T06:43:10.712Z,66.49
2023-04-08T06:45:37.415Z,64.38
2023-04-08T06:48:04.284Z,64.89
2023-04-08T06:50:31.067Z,64.78
2023-04-08T06:52:57.618Z,64.47
2023-04-08T06:55:24.259Z,63.67
2023-04-08T06:57:51.010Z,62.57
2023-04-08T07:00:17.967Z,63.24
2023-04-08T07:02:45.053Z,62.46
2023-04-08T07:05:11.882Z,62.53
2023-04-08T07:07:38.631Z,60.77
2023-04-08T07:10:07.279Z,59.98
2023-04-08T07:12:35.574Z,60.49
2023-04-08T07:15:02.273Z,61.46
2023-04-08T07:17:29.087Z,59.23
2023-04-08T07:19:55.952Z,59.88
2023-04-08T07:22:22.657Z,61.44
2023-04-08T07:24:49.927Z,61.37
2023-04-08T07:27:17.354Z,60.63
2023-04-08T07:29:44.072Z,60.66
2023-04-08T07:32:10.793Z,60.80
2023-04-08T07:34:37.607Z,61.34
2023-04-08T07:37:04.291Z,59.57
2023-04-08T07:39:31.149Z,60.14
2023-04-08T07:41:57.826Z,60.62
2023-04-08T07:44:24.528Z,59.71
2023-04-08T07:46:51.953Z,60.07
2023-04-08T07:49:18.786Z,59.47
2023-04-08T07:51:45.388Z,60.25
2023-04-08T07:54:17.377Z,58.85
2023-04-08T07:56:44.910Z,57.57
2023-04-08T07:59:12.020Z,58.83
2023-04-08T08:01:38.765Z,59.13
2023-04-08T08:04:05.653Z,59.34
2023-04-08T08:06:32.722Z,60.26
2023-04-08T08:08:59.981Z,59.56
2023-04-08T08:11:30.049Z,59.92
2023-04-08T08:13:57.054Z,59.30
2023-04-08T08:16:27.319Z,58.68
2023-04-08T08:18:54.054Z,59.66
2023-04-08T08:21:20.748Z,58.50
2023-04-08T08:23:47.679Z,58.49
2023-04-08T08:26:14.341Z,57.06
2023-04-08T08:28:40.942Z,59.18
2023-04-08T08:31:07.847Z,56.72
2023-04-08T08:33:34.554Z,55.75
2023-04-08T08:36:01.265Z,54.77
2023-04-08T08:38:28.038Z,53.86
2023-04-08T08:40:56.339Z,54.77
2023-04-08T08:43:24.294Z,54.28
2023-04-08T08:45:51.347Z,55.77
2023-04-08T08:48:18.062Z,55.30
2023-04-08T08:50:44.724Z,56.68
2023-04-08T08:53:11.560Z,55.14
2023-04-08T08:56:05.537Z,55.97
2023-04-08T08:58:29.594Z,55.66
2023-04-08T09:00:56.361Z,56.01
2023-04-08T09:03:29.706Z,57.45
2023-04-08T09:06:01.098Z,55.66
2023-04-08T09:08:34.552Z,55.64
2023-04-08T09:11:14.352Z,53.71
2023-04-08T09:13:41.226Z,56.69
2023-04-08T09:16:11.918Z,54.98
2023-04-08T09:18:38.743Z,54.24
2023-04-08T09:21:06.415Z,53.99
2023-04-08T09:23:42.649Z,54.43
2023-04-08T09:26:19.809Z,52.89
2023-04-08T09:29:24.082Z,54.21
2023-04-08T09:31:58.550Z,52.12
2023-04-08T09:34:25.867Z,50.70
2023-04-08T09:36:52.698Z,51.12
2023-04-08T09:39:19.498Z,52.57
2023-04-08T09:41:48.996Z,50.00
2023-04-08T09:44:16.936Z,52.12
2023-04-08T09:46:49.597Z,49.04
2023-04-08T09:49:25.564Z,51.15
2023-04-08T09:52:19.513Z,50.76
2023-04-08T09:55:06.781Z,49.14
2023-04-08T09:57:54.725Z,50.04
2023-04-08T10:00:28.911Z,48.14
2023-04-08T10:02:59.436Z,48.03
2023-04-08T10:05:26.313Z,51.26
2023-04-08T10:07:52.982Z,48.51
2023-04-08T10:10:19.975Z,48.04
2023-04-08T10:12:46.585Z,52.64
2023-04-08T10:15:26.088Z,53.68
2023-04-08T10:17:53.656Z,51.96
2023-04-08T10:20:44.045Z,52.35
2023-04-08T10:23:14.913Z,51.99
2023-04-08T10:25:41.884Z,53.49
2023-04-08T10:28:11.348Z,54.36
2023-04-08T10:30:51.031Z,52.45
2023-04-08T10:33:18.387Z,52.46
2023-04-08T10:35:59.536Z,51.53
2023-04-08T10:38:26.207Z,50.90
2023-04-08T10:40:53.759Z,51.78
2023-04-08T10:43:20.839Z,51.66
2023-04-08T10:45:51.403Z,50.92
2023-04-08T10:48:23.086Z,50.39
2023-04-08T10:50:57.016Z,50.19
2023-04-08T10:53:36.761Z,46.54
2023-04-08T10:56:24.548Z,47.68
2023-04-08T10:58:52.372Z,49.50
2023-04-08T11:01:19.137Z,49.05
2023-04-08T11:03:46.076Z,50.39
2023-04-08T11:06:13.007Z,46.89
2023-04-08T11:08:39.619Z,45.42
2023-04-08T11:11:09.281Z,46.13
2023-04-08T11:13:36.916Z,46.14
2023-04-08T11:16:16.505Z,46.81
2023-04-08T11:18:45.950Z,46.42
2023-04-08T11:21:12.740Z,47.63
2023-04-08T11:23:39.445Z,46.62
2023-04-08T11:26:06.541Z,47.85
2023-04-08T11:28:33.165Z,48.25
2023-04-08T11:30:59.928Z,48.58
2023-04-08T11:33:29.290Z,48.22
2023-04-08T11:35:56.631Z,46.82
2023-04-08T11:38:24.297Z,49.66
2023-04-08T11:40:55.410Z,48.60
2023-04-08T11:43:22.224Z,46.40
2023-04-08T11:45:48.938Z,47.47
2023-04-08T11:48:16.474Z,43.24
2023-04-08T11:50:43.695Z,44.71
2023-04-08T11:53:25.283Z,45.16
2023-04-08T11:55:51.984Z,46.93
2023-04-08T11:58:18.651Z,46.42
2023-04-08T12:00:45.819Z,45.84
2023-04-08T12:03:13.556Z,44.82
2023-04-08T12:05:40.742Z,43.54
2023-04-08T12:08:07.479Z,47.48
2023-04-08T12:10:34.164Z,46.05
2023-04-08T12:13:00.802Z,44.81
2023-04-08T12:15:27.547Z,44.94
2023-04-08T12:17:54.343Z,46.15
2023-04-08T12:20:21.140Z,48.27
2023-04-08T12:22:47.798Z,48.49
2023-04-08T12:25:14.387Z,48.18
2023-04-08T12:27:41.092Z,46.72
2023-04-08T12:30:08.614Z,47.50
2023-04-08T12:32:35.359Z,45.18
2023-04-08T12:35:02.084Z,45.22
2023-04-08T12:37:28.873Z,45.79
2023-04-08T12:39:55.622Z,44.83
2023-04-08T12:42:22.369Z,43.87
2023-04-08T12:44:49.009Z,44.90
2023-04-08T12:47:15.930Z,43.45
2023-04-08T12:49:49.396Z,44.77
2023-04-08T12:52:17.467Z,44.06
2023-04-08T12:54:44.474Z,44.13
2023-04-08T12:57:11.294Z,45.04
2023-04-08T12:59:39.858Z,44.63
2023-04-08T13:02:07.007Z,44.59
2023-04-08T13:04:33.639Z,47.92
2023-04-08T13:07:01.010Z,49.05
2023-04-08T13:09:27.737Z,49.33
2023-04-08T13:11:54.325Z,50.80
2023-04-08T13:14:21.345Z,51.17
2023-04-08T13:16:48.007Z,50.88
2023-04-08T13:19:14.910Z,50.90
2023-04-08T13:21:41.626Z,51.92
2023-04-08T13:24:10.763Z,51.26
2023-04-08T13:26:44.170Z,52.12
2023-04-08T13:29:17.342Z,51.83
2023-04-08T13:32:13.827Z,52.29
2023-04-08T13:35:21.009Z,53.69
2023-04-08T13:37:51.799Z,53.72
2023-04-08T13:40:18.660Z,54.74
2023-04-08T13:42:45.317Z,54.93
2023-04-08T13:45:12.049Z,56.08
2023-04-08T13:47:38.923Z,57.42
2023-04-08T13:50:08.993Z,59.31
2023-04-08T13:52:36.010Z,60.99
2023-04-08T13:55:02.787Z,59.88
2023-04-08T13:57:29.525Z,60.99
2023-04-08T13:59:56.223Z,60.43
2023-04-08T14:02:23.728Z,60.65
2023-04-08T14:04:50.609Z,63.65
2023-04-08T14:07:17.413Z,63.41
2023-04-08T14:09:44.052Z,63.03
2023-04-08T14:12:10.918Z,62.47
2023-04-08T14:14:37.495Z,62.70
2023-04-08T14:17:04.354Z,62.24
2023-04-08T14:19:31.242Z,60.73
2023-04-08T14:21:57.861Z,61.29
2023-04-08T14:24:24.539Z,59.92
2023-04-08T14:26:51.221Z,59.73
2023-04-08T14:29:17.877Z,58.98
2023-04-08T14:31:44.581Z,58.03
2023-04-08T14:34:11.237Z,58.75
2023-04-08T14:36:37.857Z,58.66
2023-04-08T14:39:04.563Z,58.42
2023-04-08T14:41:31.497Z,58.34
2023-04-08T14:43:58.098Z,59.17
2023-04-08T14:46:28.584Z,58.98
2023-04-08T14:48:55.863Z,59.83
2023-04-08T14:51:22.559Z,60.20
2023-04-08T14:53:49.214Z,61.63
2023-04-08T14:56:16.143Z,62.05
2023-04-08T14:58:42.747Z,60.78
2023-04-08T15:01:09.388Z,59.80
2023-04-08T15:03:36.195Z,60.26
2023-04-08T15:06:03.506Z,60.54
2023-04-08T15:08:30.140Z,61.23
2023-04-08T15:10:57.148Z,60.16
2023-04-08T15:13:23.824Z,58.21
2023-04-08T15:15:50.580Z,59.24
2023-04-08T15:18:17.348Z,61.18
2023-04-08T15:20:43.903Z,60.32
2023-04-08T15:23:10.606Z,60.92
2023-04-08T15:25:37.313Z,59.44
2023-04-08T15:28:04.565Z,60.04
2023-04-08T15:30:35.365Z,58.85
2023-04-08T15:33:03.725Z,58.83
2023-04-08T15:35:30.858Z,59.47
2023-04-08T15:37:57.634Z,59.75
2023-04-08T15:40:24.392Z,59.32
2023-04-08T15:42:51.075Z,59.76
2023-04-08T15:45:17.726Z,60.77
2023-04-08T15:47:44.474Z,61.65
2023-04-08T15:50:11.605Z,62.91
2023-04-08T15:52:38.214Z,63.36
2023-04-08T15:55:05.337Z,63.38
2023-04-08T15:57:32.564Z,61.93
2023-04-08T15:59:59.212Z,61.32
2023-04-08T16:02:26.117Z,60.77
2023-04-08T16:04:52.831Z,60.64
2023-04-08T16:07:19.552Z,59.61
2023-04-08T16:09:46.333Z,59.81
2023-04-08T16:12:14.829Z,61.34
2023-04-08T16:14:41.466Z,60.75
2023-04-08T16:17:09.141Z,61.33
2023-04-08T16:19:35.796Z,60.66
2023-04-08T16:22:02.484Z,61.02
2023-04-08T16:24:29.150Z,61.41
2023-04-08T16:26:55.766Z,62.50
2023-04-08T16:29:22.999Z,62.40
2023-04-08T16:31:50.377Z,63.56
2023-04-08T16:34:19.596Z,63.79
2023-04-08T16:36:46.331Z,64.69
2023-04-08T16:39:12.948Z,64.86
2023-04-08T16:41:39.788Z,64.81
2023-04-08T16:44:06.702Z,64.86
2023-04-08T16:46:33.502Z,65.34
2023-04-08T16:49:00.231Z,65.29
2023-04-08T16:51:26.890Z,65.99
2023-04-08T16:53:54.834Z,66.06
2023-04-08T16:56:22.980Z,66.11
2023-04-08T16:58:49.564Z,65.54
2023-04-08T17:01:16.340Z,65.80
2023-04-08T17:03:43.115Z,66.51
2023-04-08T17:06:10.740Z,68.15
2023-04-08T17:08:37.600Z,68.74
2023-04-08T17:11:10.048Z,68.09
2023-04-08T17:13:41.306Z,68.38
2023-04-08T17:16:11.991Z,68.78
2023-04-08T17:18:38.570Z,67.74
2023-04-08T17:21:05.322Z,69.27
2023-04-08T17:23:31.958Z,69.61
2023-04-08T17:25:58.659Z,71.00
2023-04-08T17:28:25.576Z,70.84
2023-04-08T17:30:52.376Z,70.98
2023-04-08T17:33:19.081Z,70.64
2023-04-08T17:35:45.903Z,71.08
2023-04-08T17:38:13.063Z,72.17
2023-04-08T17:40:39.751Z,73.17
2023-04-08T17:43:06.532Z,72.84
2023-04-08T17:45:33.156Z,72.15
2023-04-08T17:47:59.907Z,72.01
2023-04-08T17:50:26.658Z,72.58
2023-04-08T17:52:53.271Z,73.14
2023-04-08T17:55:19.949Z,71.18
2023-04-08T17:57:47.246Z,72.10
2023-04-08T18:00:14.072Z,72.85
2023-04-08T18:02:41.814Z,72.94
2023-04-08T18:05:08.960Z,72.10
2023-04-08T18:07:36.078Z,73.09
2023-04-08T18:10:02.800Z,72.17
2023-04-08T18:12:30.532Z,73.50
2023-04-08T18:15:00.206Z,74.87
2023-04-08T18:17:27.693Z,76.75
2023-04-08T18:19:54.400Z,79.52
2023-04-08T18:22:22.595Z,78.82
2023-04-08T18:24:49.378Z,79.71
2023-04-08T18:27:17.079Z,78.50
2023-04-08T18:29:43.808Z,81.44
2023-04-08T18:32:10.622Z,80.70
2023-04-08T18:34:38.943Z,81.33
2023-04-08T18:37:05.754Z,81.11
2023-04-08T18:39:32.399Z,82.33
2023-04-08T18:41:59.050Z,80.10
2023-04-08T18:44:25.827Z,80.07
2023-04-08T18:46:52.498Z,80.39
2023-04-08T18:49:19.158Z,80.24
2023-04-08T18:51:59.053Z,78.59
2023-04-08T18:54:28.329Z,79.34
2023-04-08T18:56:54.972Z,79.16
2023-04-08T18:59:21.722Z,79.89
2023-04-08T19:01:48.421Z,80.53
2023-04-08T19:04:15.248Z,80.04
2023-04-08T19:06:41.965Z,79.29
2023-04-08T19:09:08.605Z,78.28
2023-04-08T19:11:35.361Z,79.42
2023-04-08T19:14:02.062Z,77.24
2023-04-08T19:16:28.804Z,77.17
2023-04-08T19:18:56.096Z,78.76
2023-04-08T19:21:23.263Z,77.82
2023-04-08T19:23:50.225Z,77.13
2023-04-08T19:26:17.364Z,79.86
2023-04-08T19:28:44.032Z,78.47
2023-04-08T19:31:17.539Z,78.52
2023-04-08T19:33:44.559Z,79.33
2023-04-08T19:36:11.653Z,79.10
2023-04-08T19:38:38.691Z,79.53
2023-04-08T19:41:05.446Z,78.83
2023-04-08T19:43:32.175Z,77.66
2023-04-08T19:45:58.802Z,78.07
2023-04-08T19:48:25.999Z,77.49
2023-04-08T19:50:52.632Z,77.42
2023-04-08T19:53:20.573Z,78.59
2023-04-08T19:55:47.214Z,77.05
2023-04-08T19:58:13.846Z,78.62
2023-04-08T20:00:40.783Z,78.25
2023-04-08T20:03:08.171Z,80.19
2023-04-08T20:05:34.983Z,80.03
2023-04-08T20:08:01.612Z,79.68
2023-04-08T20:10:28.324Z,79.18
2023-04-08T20:12:54.984Z,77.72
2023-04-08T20:15:25.256Z,77.69
2023-04-08T20:17:53.142Z,79.47
2023-04-08T20:20:20.392Z,79.12
2023-04-08T20:22:47.024Z,79.31
2023-04-08T20:25:13.740Z,79.36
2023-04-08T20:27:41.284Z,79.31
2023-04-08T20:30:08.481Z,80.41
2023-04-08T20:32:35.080Z,80.77
2023-04-08T20:35:01.865Z,80.25
2023-04-08T20:37:28.802Z,79.81
2023-04-08T20:39:55.528Z,80.50
2023-04-08T20:42:22.740Z,80.39
2023-04-08T20:44:49.383Z,79.47
2023-04-08T20:47:16.888Z,79.24
2023-04-08T20:49:43.635Z,79.92
2023-04-08T20:52:10.417Z,80.16
2023-04-08T20:54:36.990Z,80.09
2023-04-08T20:57:03.690Z,79.49
2023-04-08T20:59:30.348Z,79.16
2023-04-08T21:01:57.002Z,79.45
2023-04-08T21:04:24.526Z,79.80
2023-04-08T21:06:51.515Z,79.66
2023-04-08T21:09:18.207Z,79.92
2023-04-08T21:11:44.930Z,79.44
2023-04-08T21:14:11.605Z,79.82
2023-04-08T21:16:38.220Z,80.14
2023-04-08T21:19:04.906Z,80.51
2023-04-08T21:21:31.723Z,80.35
2023-04-08T21:24:00.550Z,79.56
2023-04-08T21:26:27.746Z,80.03
2023-04-08T21:28:54.410Z,78.24
2023-04-08T21:31:21.156Z,78.94
2023-04-08T21:33:47.905Z,79.99
2023-04-08T21:36:14.642Z,79.73
2023-04-08T21:38:41.800Z,79.77
2023-04-08T21:41:08.523Z,79.82
2023-04-08T21:43:35.108Z,80.11
2023-04-08T21:46:01.854Z,79.49
2023-04-08T21:48:28.632Z,78.74
2023-04-08T21:50:55.295Z,78.86
2023-04-08T21:53:23.782Z,79.70
2023-04-08T21:55:50.547Z,80.20
2023-04-08T21:58:17.282Z,81.01
2023-04-08T22:00:44.700Z,80.10
2023-04-08T22:03:11.544Z,78.79
2023-04-08T22:05:38.368Z,78.83
2023-04-08T22:08:05.431Z,79.77
2023-04-08T22:10:32.153Z,79.77
2023-04-08T22:12:58.792Z,79.70
2023-04-08T22:15:25.408Z,79.32
2023-04-08T22:17:53.269Z,79.67
2023-04-08T22:20:20.034Z,80.81
2023-04-08T22:22:46.666Z,80.70
2023-04-08T22:25:13.375Z,81.64
2023-04-08T22:27:40.088Z,81.18
2023-04-08T22:30:07.449Z,79.75
2023-04-08T22:32:34.125Z,81.33
2023-04-08T22:35:00.853Z,80.37
2023-04-08T22:37:27.627Z,80.89
2023-04-08T22:39:54.264Z,80.53
2023-04-08T22:42:20.982Z,80.49
2023-04-08T22:44:47.586Z,81.04
2023-04-08T22:47:14.323Z,81.41
2023-04-08T22:49:42.679Z,80.71
2023-04-08T22:52:09.501Z,80.85
2023-04-08T22:54:36.441Z,81.53
2023-04-08T22:57:03.295Z,80.16
2023-04-08T22:59:29.979Z,79.86
2023-04-08T23:01:56.694Z,80.06
2023-04-08T23:04:23.345Z,80.42
2023-04-08T23:06:50.041Z,80.74
2023-04-08T23:09:16.746Z,81.44
2023-04-08T23:11:43.395Z,81.73
2023-04-08T23:14:11.239Z,80.54
2023-04-08T23:16:37.813Z,79.84
2023-04-08T23:19:04.522Z,79.13
2023-04-08T23:21:31.228Z,80.35
2023-04-08T23:23:57.913Z,80.77
2023-04-08T23:26:25.431Z,80.59
2023-04-08T23:28:52.453Z,79.69
2023-04-08T23:31:19.662Z,79.90
2023-04-08T23:33:46.449Z,79.95
2023-04-08T23:36:13.231Z,80.99
2023-04-08T23:38:39.924Z,81.97
2023-04-08T23:41:06.801Z,79.96
2023-04-08T23:43:33.679Z,81.03
2023-04-08T23:46:00.299Z,81.05
2023-04-08T23:48:26.987Z,80.14
2023-04-08T23:50:54.390Z,79.73
2023-04-08T23:53:21.189Z,80.29
2023-04-08T23:55:48.009Z,80.67
2023-04-08T23:58:14.790Z,81.21
